createdAt,value
2019-04-16T00:00:00.193Z,1.80
2019-04-16T00:01:13.921Z,1.80
2019-04-16T00:02:36.755Z,4.37
2019-04-16T00:03:42.014Z,4.33
2019-04-16T00:04:59.543Z,4.97
2019-04-16T00:06:16.802Z,4.50
2019-04-16T00:07:38.576Z,4.60
2019-04-16T00:08:43.865Z,5.03
2019-04-16T00:10:07.495Z,5.13
2019-04-16T00:11:12.772Z,5.77
2019-04-16T00:12:24.233Z,5.13
2019-04-16T00:13:29.888Z,4.47
2019-04-16T00:14:37.807Z,4.57
2019-04-16T00:15:42.106Z,4.93
2019-04-16T00:16:45.829Z,4.47
2019-04-16T00:17:49.467Z,5.10
2019-04-16T00:18:57.988Z,4.57
2019-04-16T00:19:58.517Z,4.87
2019-04-16T00:21:10.045Z,4.43
2019-04-16T00:22:13.588Z,4.90
2019-04-16T00:23:28.385Z,5.07
2019-04-16T00:24:33.639Z,4.60
2019-04-16T00:25:37.561Z,4.80
2019-04-16T00:26:41.208Z,4.93
2019-04-16T00:27:44.835Z,4.60
2019-04-16T00:28:48.460Z,4.47
2019-04-16T00:29:52.139Z,3.67
2019-04-16T00:30:55.845Z,4.00
2019-04-16T00:32:00.602Z,2.83
2019-04-16T00:33:04.248Z,2.70
2019-04-16T00:34:07.838Z,2.50
2019-04-16T00:35:15.411Z,2.17
2019-04-16T00:36:18.142Z,2.57
2019-04-16T00:37:22.352Z,2.27
2019-04-16T00:38:26.004Z,2.10
2019-04-16T00:39:29.658Z,2.10
2019-04-16T00:40:33.294Z,2.17
2019-04-16T00:41:36.926Z,2.03
2019-04-16T00:42:40.561Z,1.90
2019-04-16T00:43:44.329Z,2.00
2019-04-16T00:44:48.013Z,2.37
2019-04-16T00:45:51.672Z,2.13
2019-04-16T00:46:55.312Z,2.17
2019-04-16T00:47:58.935Z,1.90
2019-04-16T00:49:02.563Z,1.83
2019-04-16T00:50:07.415Z,2.60
2019-04-16T00:51:11.047Z,2.50
2019-04-16T00:52:14.699Z,2.97
2019-04-16T00:53:18.280Z,2.13
2019-04-16T00:54:21.931Z,2.50
2019-04-16T00:55:25.572Z,2.03
2019-04-16T00:56:29.601Z,2.37
2019-04-16T00:57:33.239Z,2.40
2019-04-16T00:58:37.303Z,2.43
2019-04-16T00:59:40.961Z,2.20
2019-04-16T01:00:44.843Z,2.40
2019-04-16T01:01:48.839Z,2.30
2019-04-16T01:02:52.873Z,2.83
2019-04-16T01:03:56.519Z,2.70
2019-04-16T01:05:00.149Z,3.10
2019-04-16T01:06:07.012Z,3.23
2019-04-16T01:07:09.291Z,3.00
2019-04-16T01:08:12.937Z,2.57
2019-04-16T01:09:16.636Z,3.07
2019-04-16T01:10:20.264Z,3.23
2019-04-16T01:11:23.905Z,3.23
2019-04-16T01:12:27.568Z,3.63
2019-04-16T01:13:31.282Z,2.87
2019-04-16T01:14:35.361Z,2.87
2019-04-16T01:15:38.995Z,2.83
2019-04-16T01:16:42.545Z,3.07
2019-04-16T01:17:46.175Z,2.57
2019-04-16T01:18:49.754Z,2.43
2019-04-16T01:19:53.850Z,2.10
2019-04-16T01:20:57.498Z,2.30
2019-04-16T01:22:01.035Z,2.50
2019-04-16T01:23:04.685Z,2.20
2019-04-16T01:24:08.259Z,1.97
2019-04-16T01:25:11.911Z,2.30
2019-04-16T01:26:15.558Z,2.47
2019-04-16T01:27:20.757Z,2.50
2019-04-16T01:28:42.274Z,2.63
2019-04-16T01:29:45.894Z,2.70
2019-04-16T01:30:51.485Z,2.70
2019-04-16T01:31:56.756Z,2.77
2019-04-16T01:33:19.988Z,2.77
2019-04-16T01:34:40.209Z,2.67
2019-04-16T01:35:51.611Z,3.10
2019-04-16T01:37:13.759Z,2.73
2019-04-16T01:38:21.545Z,2.73
2019-04-16T01:39:35.795Z,2.80
2019-04-16T01:40:43.868Z,4.00
2019-04-16T01:41:50.331Z,5.07
2019-04-16T01:42:54.719Z,4.60
2019-04-16T01:43:58.690Z,5.43
2019-04-16T01:45:02.270Z,5.13
2019-04-16T01:46:05.934Z,6.83
2019-04-16T01:47:09.567Z,6.47
2019-04-16T01:48:13.212Z,6.47
2019-04-16T01:49:16.854Z,7.93
2019-04-16T01:50:20.496Z,7.10
2019-04-16T01:51:24.168Z,6.80
2019-04-16T01:52:27.816Z,8.40
2019-04-16T01:53:31.467Z,7.63
2019-04-16T01:54:35.126Z,7.03
2019-04-16T01:55:38.767Z,7.27
2019-04-16T01:56:42.389Z,7.70
2019-04-16T01:57:46.026Z,7.23
2019-04-16T01:58:49.652Z,7.87
2019-04-16T01:59:53.285Z,6.70
2019-04-16T02:00:56.936Z,6.40
2019-04-16T02:02:00.576Z,7.87
2019-04-16T02:03:04.233Z,7.17
2019-04-16T02:04:07.849Z,7.03
2019-04-16T02:05:11.714Z,8.70
2019-04-16T02:06:15.328Z,11.63
2019-04-16T02:07:18.989Z,11.63
2019-04-16T02:08:22.567Z,9.30
2019-04-16T02:09:26.291Z,8.27
2019-04-16T02:10:29.931Z,9.10
2019-04-16T02:11:33.789Z,8.47
2019-04-16T02:12:37.573Z,8.97
2019-04-16T02:13:45.775Z,9.47
2019-04-16T02:14:47.315Z,9.00
2019-04-16T02:15:53.331Z,8.93
2019-04-16T02:16:57.338Z,7.97
2019-04-16T02:18:00.964Z,7.53
2019-04-16T02:19:04.625Z,6.87
2019-04-16T02:20:08.730Z,6.50
2019-04-16T02:21:12.392Z,7.03
2019-04-16T02:22:16.352Z,8.77
2019-04-16T02:23:19.979Z,9.20
2019-04-16T02:24:23.622Z,9.90
2019-04-16T02:25:27.269Z,8.67
2019-04-16T02:26:30.912Z,8.93
2019-04-16T02:27:34.608Z,9.27
2019-04-16T02:28:38.244Z,7.40
2019-04-16T02:29:41.871Z,7.60
2019-04-16T02:30:45.511Z,7.30
2019-04-16T02:31:51.599Z,7.20
2019-04-16T02:32:55.390Z,6.33
2019-04-16T02:33:59.099Z,6.60
2019-04-16T02:35:02.753Z,6.60
2019-04-16T02:36:06.636Z,4.17
2019-04-16T02:37:10.424Z,4.07
2019-04-16T02:38:14.481Z,3.97
2019-04-16T02:39:18.132Z,4.27
2019-04-16T02:40:21.754Z,4.83
2019-04-16T02:41:25.398Z,4.77
2019-04-16T02:42:31.886Z,4.57
2019-04-16T02:43:39.436Z,4.23
2019-04-16T02:44:39.822Z,4.40
2019-04-16T02:45:43.530Z,4.43
2019-04-16T02:46:47.175Z,4.63
2019-04-16T02:47:50.804Z,3.73
2019-04-16T02:48:54.904Z,3.60
2019-04-16T02:49:59.723Z,3.80
2019-04-16T02:51:11.331Z,3.90
2019-04-16T02:52:17.342Z,3.87
2019-04-16T02:53:35.380Z,3.70
2019-04-16T02:54:46.431Z,3.60
2019-04-16T02:56:17.393Z,3.47
2019-04-16T02:57:25.853Z,3.90
2019-04-16T02:58:33.953Z,3.50
2019-04-16T02:59:37.055Z,4.03
2019-04-16T03:00:42.626Z,3.97
2019-04-16T03:02:00.350Z,4.07
2019-04-16T03:03:14.723Z,4.57
2019-04-16T03:04:20.057Z,4.63
2019-04-16T03:05:26.512Z,6.17
2019-04-16T03:06:31.991Z,5.20
2019-04-16T03:07:36.177Z,4.03
2019-04-16T03:08:39.955Z,5.33
2019-04-16T03:09:43.948Z,6.73
2019-04-16T03:10:50.320Z,6.90
2019-04-16T03:11:53.981Z,8.03
2019-04-16T03:13:00.657Z,7.10
2019-04-16T03:14:04.398Z,7.17
2019-04-16T03:15:08.440Z,6.93
2019-04-16T03:16:19.460Z,6.97
2019-04-16T03:17:27.737Z,8.67
2019-04-16T03:18:33.014Z,6.50
2019-04-16T03:19:39.047Z,6.83
2019-04-16T03:20:42.803Z,6.67
2019-04-16T03:21:46.437Z,6.63
2019-04-16T03:22:50.140Z,7.03
2019-04-16T03:23:53.761Z,6.43
2019-04-16T03:24:57.403Z,7.20
2019-04-16T03:26:01.041Z,6.97
2019-04-16T03:27:05.558Z,7.10
2019-04-16T03:28:09.431Z,7.03
2019-04-16T03:29:13.297Z,7.40
2019-04-16T03:30:17.672Z,6.33
2019-04-16T03:31:23.459Z,7.40
2019-04-16T03:32:33.640Z,7.00
2019-04-16T03:33:32.192Z,6.77
2019-04-16T03:34:35.850Z,7.27
2019-04-16T03:35:39.629Z,7.17
2019-04-16T03:36:43.260Z,8.20
2019-04-16T03:37:47.007Z,7.73
2019-04-16T03:38:50.701Z,7.30
2019-04-16T03:39:54.315Z,7.93
2019-04-16T03:40:57.950Z,7.83
2019-04-16T03:42:01.575Z,8.40
2019-04-16T03:43:05.619Z,8.33
2019-04-16T03:44:09.841Z,7.93
2019-04-16T03:45:13.549Z,8.43
2019-04-16T03:46:17.189Z,10.20
2019-04-16T03:47:20.835Z,8.83
2019-04-16T03:48:24.541Z,9.00
2019-04-16T03:49:31.238Z,8.80
2019-04-16T03:50:34.906Z,8.80
2019-04-16T03:51:38.553Z,8.80
2019-04-16T03:52:45.486Z,8.60
2019-04-16T03:53:49.550Z,8.37
2019-04-16T03:54:54.074Z,9.10
2019-04-16T03:55:59.067Z,9.00
2019-04-16T03:57:02.911Z,7.23
2019-04-16T03:58:07.326Z,7.57
2019-04-16T03:59:12.343Z,7.50
2019-04-16T04:00:18.090Z,7.27
2019-04-16T04:01:21.774Z,7.93
2019-04-16T04:02:25.398Z,8.10
2019-04-16T04:03:29.036Z,9.20
2019-04-16T04:04:32.672Z,8.67
2019-04-16T04:05:36.549Z,9.10
2019-04-16T04:06:40.712Z,8.50
2019-04-16T04:07:48.288Z,7.93
2019-04-16T04:08:53.268Z,7.20
2019-04-16T04:09:58.730Z,8.23
2019-04-16T04:11:02.472Z,7.20
2019-04-16T04:12:06.129Z,8.47
2019-04-16T04:13:10.069Z,7.63
2019-04-16T04:14:13.702Z,7.63
2019-04-16T04:15:17.892Z,7.77
2019-04-16T04:16:21.616Z,7.73
2019-04-16T04:17:25.275Z,8.73
2019-04-16T04:18:29.289Z,10.77
2019-04-16T04:19:32.918Z,8.47
2019-04-16T04:20:39.949Z,9.07
2019-04-16T04:21:43.584Z,8.60
2019-04-16T04:22:47.192Z,8.70
2019-04-16T04:23:51.237Z,10.10
2019-04-16T04:24:54.891Z,10.97
2019-04-16T04:25:58.468Z,10.17
2019-04-16T04:27:02.465Z,10.07
2019-04-16T04:28:06.626Z,9.60
2019-04-16T04:29:10.452Z,10.77
2019-04-16T04:30:15.357Z,11.63
2019-04-16T04:31:21.975Z,11.57
2019-04-16T04:32:25.621Z,12.37
2019-04-16T04:33:40.855Z,12.30
2019-04-16T04:34:41.578Z,12.43
2019-04-16T04:35:45.257Z,11.83
2019-04-16T04:36:49.292Z,11.53
2019-04-16T04:37:53.051Z,10.53
2019-04-16T04:38:56.840Z,13.27
2019-04-16T04:40:00.473Z,13.83
2019-04-16T04:41:04.136Z,15.87
2019-04-16T04:42:07.794Z,17.33
2019-04-16T04:43:11.458Z,14.97
2019-04-16T04:44:15.103Z,18.47
2019-04-16T04:45:18.812Z,17.73
2019-04-16T04:46:22.508Z,19.60
2019-04-16T04:47:26.171Z,20.70
2019-04-16T04:48:29.807Z,27.33
2019-04-16T04:49:33.672Z,33.00
2019-04-16T04:50:37.363Z,43.83
2019-04-16T04:51:43.520Z,45.00
2019-04-16T04:52:46.837Z,40.27
2019-04-16T04:53:51.374Z,17.77
2019-04-16T04:54:55.178Z,11.83
2019-04-16T04:55:58.830Z,8.77
2019-04-16T04:57:02.423Z,7.90
2019-04-16T04:58:06.058Z,8.07
2019-04-16T04:59:09.690Z,8.10
2019-04-16T05:00:14.009Z,7.60
2019-04-16T05:01:17.783Z,7.10
2019-04-16T05:02:21.468Z,7.67
2019-04-16T05:03:38.703Z,7.70
2019-04-16T05:04:56.287Z,6.83
2019-04-16T05:06:01.587Z,8.03
2019-04-16T05:07:09.345Z,7.27
2019-04-16T05:08:13.345Z,6.47
2019-04-16T05:09:16.989Z,6.60
2019-04-16T05:10:20.633Z,6.83
2019-04-16T05:11:24.305Z,7.07
2019-04-16T05:12:27.945Z,7.17
2019-04-16T05:13:31.578Z,7.73
2019-04-16T05:14:36.799Z,9.27
2019-04-16T05:15:40.428Z,9.47
2019-04-16T05:16:44.097Z,10.43
2019-04-16T05:17:47.745Z,13.00
2019-04-16T05:18:51.346Z,16.53
2019-04-16T05:19:55.300Z,17.17
2019-04-16T05:20:58.878Z,26.60
2019-04-16T05:22:02.583Z,24.00
2019-04-16T05:23:06.244Z,26.87
2019-04-16T05:24:09.900Z,24.13
2019-04-16T05:25:13.644Z,26.13
2019-04-16T05:26:17.662Z,26.07
2019-04-16T05:27:21.344Z,29.13
2019-04-16T05:28:24.933Z,33.20
2019-04-16T05:29:29.086Z,36.70
2019-04-16T05:30:32.723Z,37.07
2019-04-16T05:31:36.398Z,40.50
2019-04-16T05:32:40.091Z,39.23
2019-04-16T05:33:43.797Z,39.33
2019-04-16T05:34:47.453Z,37.97
2019-04-16T05:35:51.413Z,37.53
2019-04-16T05:36:55.071Z,37.43
2019-04-16T05:37:58.678Z,37.53
2019-04-16T05:39:03.763Z,39.23
2019-04-16T05:40:07.783Z,39.10
2019-04-16T05:41:13.492Z,37.93
2019-04-16T05:42:16.762Z,33.67
2019-04-16T05:43:22.599Z,32.93
2019-04-16T05:44:25.785Z,32.63
2019-04-16T05:45:29.442Z,34.07
2019-04-16T05:46:33.032Z,33.43
2019-04-16T05:47:36.658Z,33.20
2019-04-16T05:48:40.426Z,35.03
2019-04-16T05:49:44.086Z,34.33
2019-04-16T05:50:47.827Z,32.50
2019-04-16T05:51:51.829Z,33.97
2019-04-16T05:52:55.666Z,33.57
2019-04-16T05:54:01.040Z,32.70
2019-04-16T05:55:20.391Z,35.10
2019-04-16T05:56:31.721Z,31.77
2019-04-16T05:57:36.995Z,27.70
2019-04-16T05:58:40.635Z,29.00
2019-04-16T05:59:44.330Z,29.73
2019-04-16T06:00:49.605Z,29.23
2019-04-16T06:01:57.319Z,28.90
2019-04-16T06:03:00.275Z,31.00
2019-04-16T06:04:03.921Z,27.93
2019-04-16T06:05:08.008Z,29.20
2019-04-16T06:06:11.636Z,26.37
2019-04-16T06:07:15.295Z,26.67
2019-04-16T06:08:19.179Z,24.33
2019-04-16T06:09:22.776Z,25.07
2019-04-16T06:10:26.465Z,25.07
2019-04-16T06:11:35.679Z,24.23
2019-04-16T06:12:39.651Z,24.00
2019-04-16T06:13:45.150Z,25.57
2019-04-16T06:14:54.036Z,23.77
2019-04-16T06:15:59.478Z,23.43
2019-04-16T06:17:21.138Z,20.80
2019-04-16T06:18:41.426Z,21.50
2019-04-16T06:20:02.817Z,24.10
2019-04-16T06:21:25.790Z,22.60
2019-04-16T06:22:30.220Z,24.87
2019-04-16T06:23:44.520Z,24.10
2019-04-16T06:24:49.812Z,22.10
2019-04-16T06:25:55.022Z,21.57
2019-04-16T06:27:03.252Z,21.90
2019-04-16T06:28:08.597Z,20.60
2019-04-16T06:29:13.870Z,18.20
2019-04-16T06:30:34.177Z,18.43
2019-04-16T06:31:55.876Z,15.60
2019-04-16T06:33:01.086Z,15.57
2019-04-16T06:34:06.493Z,15.20
2019-04-16T06:35:23.364Z,14.20
2019-04-16T06:36:31.255Z,13.53
2019-04-16T06:37:54.735Z,13.87
2019-04-16T06:39:08.899Z,12.97
2019-04-16T06:40:14.315Z,13.00
2019-04-16T06:41:41.168Z,16.07
2019-04-16T06:42:38.915Z,13.03
2019-04-16T06:43:44.138Z,11.50
2019-04-16T06:44:55.387Z,11.60
2019-04-16T06:46:16.004Z,11.13
2019-04-16T06:47:41.851Z,11.43
2019-04-16T06:48:50.380Z,12.43
2019-04-16T06:49:55.854Z,10.87
2019-04-16T06:51:01.449Z,10.37
2019-04-16T06:52:22.735Z,10.97
2019-04-16T06:53:30.248Z,11.87
2019-04-16T06:54:41.004Z,11.43
2019-04-16T06:55:51.858Z,12.20
2019-04-16T06:57:15.467Z,11.17
2019-04-16T06:58:20.742Z,11.87
2019-04-16T06:59:35.628Z,11.90
2019-04-16T07:00:40.919Z,11.93
2019-04-16T07:02:04.140Z,10.50
2019-04-16T07:03:18.918Z,11.00
2019-04-16T07:04:24.212Z,11.53
2019-04-16T07:05:33.003Z,10.90
2019-04-16T07:06:45.768Z,11.23
2019-04-16T07:08:07.634Z,10.90
2019-04-16T07:09:16.185Z,10.23
2019-04-16T07:10:21.503Z,11.03
2019-04-16T07:11:27.065Z,10.73
2019-04-16T07:12:30.741Z,11.37
2019-04-16T07:13:34.392Z,11.37
2019-04-16T07:14:38.055Z,11.47
2019-04-16T07:15:42.200Z,11.13
2019-04-16T07:16:46.078Z,11.20
2019-04-16T07:17:49.716Z,9.40
2019-04-16T07:18:53.284Z,10.00
2019-04-16T07:19:56.914Z,11.17
2019-04-16T07:21:00.586Z,11.47
2019-04-16T07:22:04.593Z,11.20
2019-04-16T07:23:08.238Z,11.23
2019-04-16T07:24:11.948Z,11.73
2019-04-16T07:25:16.255Z,10.13
2019-04-16T07:26:20.339Z,11.13
2019-04-16T07:27:23.978Z,10.33
2019-04-16T07:28:35.163Z,10.83
2019-04-16T07:29:40.596Z,11.17
2019-04-16T07:30:48.669Z,10.57
2019-04-16T07:31:57.094Z,10.90
2019-04-16T07:33:11.087Z,10.10
2019-04-16T07:34:31.329Z,10.13
2019-04-16T07:35:36.792Z,10.43
2019-04-16T07:37:00.460Z,11.10
2019-04-16T07:38:21.885Z,10.50
2019-04-16T07:39:29.173Z,10.10
2019-04-16T07:40:39.787Z,10.53
2019-04-16T07:43:16.126Z,9.80
2019-04-16T07:43:47.126Z,12.00
2019-04-16T07:44:27.291Z,9.57
2019-04-16T07:45:50.975Z,8.90
2019-04-16T07:46:56.318Z,24.17
2019-04-16T07:48:13.572Z,11.40
2019-04-16T07:49:27.740Z,9.33
2019-04-16T07:50:49.231Z,9.90
2019-04-16T07:52:12.874Z,9.97
2019-04-16T07:53:33.390Z,9.50
2019-04-16T07:54:54.567Z,9.90
2019-04-16T07:56:02.533Z,9.80
2019-04-16T07:57:06.183Z,9.57
2019-04-16T07:58:09.843Z,10.83
2019-04-16T07:59:13.488Z,10.10
2019-04-16T08:00:17.307Z,9.93
2019-04-16T08:01:20.981Z,9.80
2019-04-16T08:02:24.605Z,10.27
2019-04-16T08:03:28.666Z,9.73
2019-04-16T08:04:35.400Z,10.27
2019-04-16T08:05:40.938Z,11.23
2019-04-16T08:06:46.267Z,10.50
2019-04-16T08:07:49.750Z,10.37
2019-04-16T08:08:56.805Z,9.57
2019-04-16T08:10:02.138Z,9.20
2019-04-16T08:11:04.584Z,9.10
2019-04-16T08:12:22.049Z,8.50
2019-04-16T08:13:15.628Z,8.50
2019-04-16T08:14:19.383Z,9.93
2019-04-16T08:15:23.110Z,9.50
2019-04-16T08:16:26.747Z,8.97
2019-04-16T08:17:31.219Z,8.60
2019-04-16T08:18:36.496Z,8.87
2019-04-16T08:19:40.202Z,8.70
2019-04-16T08:20:43.849Z,8.50
2019-04-16T08:21:47.817Z,7.77
2019-04-16T08:22:53.133Z,9.00
2019-04-16T08:23:58.415Z,7.93
2019-04-16T08:25:05.779Z,9.17
2019-04-16T08:26:12.980Z,8.60
2019-04-16T08:27:19.103Z,8.37
2019-04-16T08:28:20.257Z,8.80
2019-04-16T08:29:26.558Z,9.30
2019-04-16T08:30:34.595Z,8.53
2019-04-16T08:31:36.724Z,7.93
2019-04-16T08:32:40.419Z,8.90
2019-04-16T08:33:44.062Z,8.53
2019-04-16T08:34:47.700Z,8.50
2019-04-16T08:35:51.285Z,8.50
2019-04-16T08:36:54.984Z,8.60
2019-04-16T08:37:58.962Z,9.33
2019-04-16T08:39:06.655Z,8.17
2019-04-16T08:40:12.239Z,8.60
2019-04-16T08:41:20.077Z,8.10
2019-04-16T08:42:24.217Z,7.53
2019-04-16T08:43:26.736Z,7.87
2019-04-16T08:44:35.231Z,7.17
2019-04-16T08:45:39.179Z,7.23
2019-04-16T08:46:41.338Z,7.63
2019-04-16T08:47:46.081Z,8.73
2019-04-16T08:48:52.490Z,7.87
2019-04-16T08:49:55.194Z,7.50
2019-04-16T08:50:59.216Z,7.67
2019-04-16T08:52:02.985Z,7.60
2019-04-16T08:53:06.607Z,7.30
2019-04-16T08:54:10.326Z,7.37
2019-04-16T08:55:14.380Z,7.07
2019-04-16T08:56:17.927Z,6.83
2019-04-16T08:57:21.511Z,7.20
2019-04-16T08:58:25.192Z,6.77
2019-04-16T08:59:28.885Z,6.97
2019-04-16T09:00:32.991Z,7.07
2019-04-16T09:01:36.647Z,6.63
2019-04-16T09:02:40.303Z,6.77
2019-04-16T09:03:44.039Z,6.20
2019-04-16T09:04:47.665Z,6.60
2019-04-16T09:05:51.349Z,5.90
2019-04-16T09:06:54.998Z,6.20
2019-04-16T09:08:11.442Z,6.20
2019-04-16T09:09:25.427Z,6.20
2019-04-16T09:10:30.944Z,5.93
2019-04-16T09:11:36.405Z,5.97
2019-04-16T09:12:43.508Z,5.93
2019-04-16T09:13:49.799Z,9.60
2019-04-16T09:14:56.034Z,5.90
2019-04-16T09:15:58.802Z,6.47
2019-04-16T09:17:04.054Z,6.03
2019-04-16T09:18:12.331Z,6.00
2019-04-16T09:19:17.595Z,6.50
2019-04-16T09:20:23.422Z,5.10
2019-04-16T09:21:28.164Z,5.60
2019-04-16T09:22:32.386Z,5.00
2019-04-16T09:23:36.020Z,5.00
2019-04-16T09:24:50.307Z,5.60
2019-04-16T09:26:12.465Z,4.67
2019-04-16T09:27:05.700Z,4.13
2019-04-16T09:28:24.425Z,4.43
2019-04-16T09:29:17.880Z,4.87
2019-04-16T09:30:39.291Z,4.03
2019-04-16T09:31:59.638Z,4.60
2019-04-16T09:33:04.937Z,4.57
2019-04-16T09:34:16.210Z,4.57
2019-04-16T09:35:24.035Z,4.60
2019-04-16T09:36:38.542Z,4.70
2019-04-16T09:37:49.838Z,4.40
2019-04-16T09:39:03.977Z,4.33
2019-04-16T09:40:21.623Z,4.20
2019-04-16T09:41:29.788Z,4.07
2019-04-16T09:42:34.227Z,4.10
2019-04-16T09:43:42.351Z,4.53
2019-04-16T09:44:45.980Z,4.57
2019-04-16T09:45:49.641Z,4.20
2019-04-16T09:46:53.290Z,4.07
2019-04-16T09:47:56.940Z,4.47
2019-04-16T09:49:00.566Z,4.77
2019-04-16T09:50:09.672Z,4.50
2019-04-16T09:51:10.725Z,4.50
2019-04-16T09:52:14.380Z,4.23
2019-04-16T09:53:18.031Z,4.27
2019-04-16T09:54:21.665Z,4.50
2019-04-16T09:55:25.321Z,3.70
2019-04-16T09:56:30.197Z,4.28
2019-04-16T09:57:34.105Z,4.45
2019-04-16T09:58:42.351Z,4.03
2019-04-16T09:59:47.706Z,4.55
2019-04-16T10:00:52.190Z,4.33
2019-04-16T10:01:57.516Z,4.22
2019-04-16T10:03:02.797Z,3.58
2019-04-16T10:04:08.095Z,3.90
2019-04-16T10:05:11.834Z,3.58
2019-04-16T10:06:15.466Z,3.37
2019-04-16T10:07:19.379Z,3.30
2019-04-16T10:08:22.963Z,3.00
2019-04-16T10:09:26.731Z,4.17
2019-04-16T10:10:30.326Z,3.80
2019-04-16T10:11:35.745Z,3.50
2019-04-16T10:12:39.382Z,4.00
2019-04-16T10:13:43.193Z,3.72
2019-04-16T10:14:46.887Z,4.00
2019-04-16T10:15:50.511Z,3.95
2019-04-16T10:16:54.165Z,3.77
2019-04-16T10:17:58.612Z,3.40
2019-04-16T10:19:07.875Z,3.77
2019-04-16T10:20:08.541Z,3.62
2019-04-16T10:21:12.209Z,3.30
2019-04-16T10:22:16.253Z,3.15
2019-04-16T10:23:21.574Z,3.60
2019-04-16T10:24:43.242Z,3.27
2019-04-16T10:25:47.020Z,3.02
2019-04-16T10:26:52.273Z,3.20
2019-04-16T10:27:57.528Z,3.30
2019-04-16T10:29:05.896Z,3.35
2019-04-16T10:30:10.799Z,2.83
2019-04-16T10:31:16.058Z,2.72
2019-04-16T10:32:19.723Z,2.90
2019-04-16T10:33:23.421Z,3.50
2019-04-16T10:34:27.104Z,3.02
2019-04-16T10:35:30.758Z,2.42
2019-04-16T10:36:37.142Z,3.08
2019-04-16T10:37:39.730Z,2.90
2019-04-16T10:38:51.865Z,2.98
2019-04-16T10:39:57.124Z,3.12
2019-04-16T10:41:08.414Z,3.00
2019-04-16T10:42:30.297Z,3.15
2019-04-16T10:43:51.678Z,2.70
2019-04-16T10:45:05.942Z,2.67
2019-04-16T10:46:11.281Z,2.85
2019-04-16T10:47:22.586Z,2.80
2019-04-16T10:48:44.317Z,2.90
2019-04-16T10:49:55.172Z,3.10
2019-04-16T10:51:06.570Z,2.70
2019-04-16T10:52:26.888Z,2.47
2019-04-16T10:53:48.302Z,2.20
2019-04-16T10:55:09.305Z,2.87
2019-04-16T10:56:20.742Z,2.52
2019-04-16T10:57:22.772Z,2.58
2019-04-16T10:58:33.700Z,2.95
2019-04-16T10:59:38.987Z,3.05
2019-04-16T11:00:48.431Z,2.72
2019-04-16T11:01:53.762Z,2.70
2019-04-16T11:03:05.302Z,2.80
2019-04-16T11:04:10.960Z,2.70
2019-04-16T11:05:19.241Z,2.80
2019-04-16T11:06:23.400Z,2.52
2019-04-16T11:07:34.901Z,2.67
2019-04-16T11:08:38.697Z,2.62
2019-04-16T11:09:42.503Z,2.95
2019-04-16T11:10:46.245Z,2.37
2019-04-16T11:11:50.208Z,2.62
2019-04-16T11:12:53.931Z,2.77
2019-04-16T11:14:00.164Z,2.85
2019-04-16T11:15:03.369Z,2.70
2019-04-16T11:16:14.602Z,2.92
2019-04-16T11:17:19.900Z,2.70
2019-04-16T11:18:23.542Z,2.90
2019-04-16T11:19:27.266Z,3.52
2019-04-16T11:20:30.963Z,3.17
2019-04-16T11:21:34.617Z,2.72
2019-04-16T11:22:38.265Z,2.90
2019-04-16T11:23:41.941Z,3.10
2019-04-16T11:24:45.605Z,2.95
2019-04-16T11:25:49.226Z,3.05
2019-04-16T11:26:52.931Z,2.83
2019-04-16T11:27:56.602Z,2.93
2019-04-16T11:29:00.262Z,3.37
2019-04-16T11:30:07.136Z,3.23
2019-04-16T11:31:12.361Z,3.73
2019-04-16T11:32:17.670Z,3.23
2019-04-16T11:33:21.311Z,3.43
2019-04-16T11:34:24.966Z,3.93
2019-04-16T11:35:29.113Z,3.63
2019-04-16T11:36:32.711Z,3.80
2019-04-16T11:37:36.614Z,3.67
2019-04-16T11:38:41.625Z,3.70
2019-04-16T11:39:45.300Z,3.00
2019-04-16T11:40:48.954Z,3.60
2019-04-16T11:41:52.596Z,3.70
2019-04-16T11:42:56.277Z,3.73
2019-04-16T11:44:14.253Z,3.00
2019-04-16T11:45:06.905Z,2.97
2019-04-16T11:46:10.724Z,3.00
2019-04-16T11:47:14.381Z,2.90
2019-04-16T11:48:17.956Z,2.73
2019-04-16T11:49:21.585Z,2.70
2019-04-16T11:50:25.620Z,2.73
2019-04-16T11:51:29.305Z,3.00
2019-04-16T11:52:32.975Z,2.73
2019-04-16T11:53:36.622Z,2.60
2019-04-16T11:54:46.834Z,2.83
2019-04-16T11:55:47.966Z,2.90
2019-04-16T11:56:51.593Z,2.60
2019-04-16T11:57:57.895Z,2.83
2019-04-16T11:59:01.195Z,3.03
2019-04-16T12:00:09.412Z,2.83
2019-04-16T12:01:15.367Z,3.20
2019-04-16T12:02:20.642Z,2.87
2019-04-16T12:03:25.899Z,3.33
2019-04-16T12:04:32.793Z,3.10
2019-04-16T12:05:46.968Z,2.37
2019-04-16T12:06:58.106Z,2.63
2019-04-16T12:08:18.497Z,2.50
2019-04-16T12:09:39.755Z,2.90
2019-04-16T12:11:04.176Z,2.67
2019-04-16T12:12:12.251Z,2.90
2019-04-16T12:13:21.142Z,2.97
2019-04-16T12:14:35.495Z,2.67
2019-04-16T12:15:57.127Z,2.77
2019-04-16T12:17:15.090Z,2.57
2019-04-16T12:18:20.430Z,2.37
2019-04-16T12:19:25.779Z,2.37
2019-04-16T12:20:46.173Z,2.00
2019-04-16T12:22:00.596Z,3.30
2019-04-16T12:23:22.015Z,3.00
2019-04-16T12:24:36.477Z,2.93
2019-04-16T12:25:44.487Z,3.20
2019-04-16T12:26:49.730Z,3.13
2019-04-16T12:28:12.593Z,3.07
2019-04-16T12:29:41.821Z,3.20
2019-04-16T12:31:05.891Z,2.77
2019-04-16T12:32:11.471Z,2.67
2019-04-16T12:33:22.916Z,2.87
2019-04-16T12:34:44.683Z,3.00
2019-04-16T12:35:56.019Z,2.60
2019-04-16T12:37:16.522Z,3.17
2019-04-16T12:38:38.228Z,3.00
2019-04-16T12:39:43.570Z,3.10
2019-04-16T12:40:52.096Z,3.40
2019-04-16T12:42:00.006Z,2.87
2019-04-16T12:43:07.922Z,2.87
2019-04-16T12:44:44.633Z,3.60
2019-04-16T12:45:54.544Z,3.13
2019-04-16T12:47:18.173Z,3.13
2019-04-16T12:48:23.520Z,3.40
2019-04-16T12:49:44.715Z,2.97
2019-04-16T12:51:08.480Z,2.90
2019-04-16T12:52:17.572Z,2.83
2019-04-16T12:53:25.676Z,3.37
2019-04-16T12:54:37.913Z,3.10
2019-04-16T12:56:05.400Z,2.47
2019-04-16T12:57:14.938Z,2.77
2019-04-16T12:58:20.005Z,2.43
2019-04-16T12:59:31.080Z,2.80
2019-04-16T13:00:42.536Z,2.70
2019-04-16T13:01:54.013Z,3.20
2019-04-16T13:02:59.271Z,7.47
2019-04-16T13:04:10.751Z,8.03
2019-04-16T13:05:20.967Z,4.60
2019-04-16T13:06:32.415Z,2.93
2019-04-16T13:07:55.908Z,2.83
2019-04-16T13:09:19.351Z,2.87
2019-04-16T13:10:25.906Z,2.63
2019-04-16T13:11:32.001Z,2.70
2019-04-16T13:12:38.180Z,2.73
2019-04-16T13:13:59.697Z,2.90
2019-04-16T13:15:07.847Z,4.40
2019-04-16T13:16:29.421Z,4.57
2019-04-16T13:17:34.714Z,3.20
2019-04-16T13:18:43.145Z,2.70
2019-04-16T13:19:51.139Z,2.63
2019-04-16T13:21:03.932Z,2.80
2019-04-16T13:22:06.119Z,2.90
2019-04-16T13:23:20.154Z,2.53
2019-04-16T13:24:28.614Z,2.03
2019-04-16T13:25:36.494Z,2.43
2019-04-16T13:26:41.788Z,2.37
2019-04-16T13:27:50.879Z,2.12
2019-04-16T13:28:56.252Z,1.87
2019-04-16T13:30:01.998Z,2.40
2019-04-16T13:31:06.406Z,2.63
2019-04-16T13:32:10.663Z,2.70
2019-04-16T13:33:14.316Z,2.67
2019-04-16T13:34:18.590Z,2.40
2019-04-16T13:35:23.157Z,2.27
2019-04-16T13:36:27.967Z,2.50
2019-04-16T13:37:36.848Z,2.62
2019-04-16T13:38:40.366Z,2.33
2019-04-16T13:40:00.843Z,2.27
2019-04-16T13:41:04.604Z,2.87
2019-04-16T13:42:08.305Z,3.05
2019-04-16T13:43:13.595Z,3.58
2019-04-16T13:44:21.656Z,3.95
2019-04-16T13:45:32.778Z,2.37
2019-04-16T13:46:36.465Z,2.55
2019-04-16T13:47:46.742Z,3.00
2019-04-16T13:48:52.019Z,2.75
2019-04-16T13:50:04.881Z,2.67
2019-04-16T13:51:14.928Z,2.83
2019-04-16T13:52:17.070Z,2.50
2019-04-16T13:53:41.182Z,2.85
2019-04-16T13:54:52.544Z,2.52
2019-04-16T13:55:58.214Z,2.72
2019-04-16T13:57:06.330Z,3.37
2019-04-16T13:58:11.668Z,3.58
2019-04-16T13:59:16.959Z,2.95
2019-04-16T14:00:33.653Z,3.30
2019-04-16T14:01:54.762Z,4.03
2019-04-16T14:03:00.318Z,3.23
2019-04-16T14:04:04.030Z,4.40
2019-04-16T14:05:10.328Z,2.97
2019-04-16T14:06:13.469Z,3.27
2019-04-16T14:07:17.132Z,4.03
2019-04-16T14:08:20.786Z,2.93
2019-04-16T14:09:24.462Z,3.53
2019-04-16T14:10:28.120Z,3.10
2019-04-16T14:11:31.835Z,3.20
2019-04-16T14:12:42.139Z,2.80
2019-04-16T14:13:42.061Z,2.87
2019-04-16T14:14:46.703Z,3.03
2019-04-16T14:15:51.773Z,3.00
2019-04-16T14:16:55.429Z,3.07
2019-04-16T14:18:00.661Z,3.00
2019-04-16T14:19:06.723Z,3.77
2019-04-16T14:20:12.815Z,4.17
2019-04-16T14:21:16.579Z,3.23
2019-04-16T14:22:21.884Z,2.80
2019-04-16T14:23:25.936Z,2.87
2019-04-16T14:24:29.931Z,2.97
2019-04-16T14:25:33.600Z,2.93
2019-04-16T14:26:37.237Z,2.87
2019-04-16T14:27:40.892Z,3.73
2019-04-16T14:28:51.990Z,3.30
2019-04-16T14:29:49.963Z,3.10
2019-04-16T14:30:53.718Z,12.77
2019-04-16T14:31:57.434Z,7.70
2019-04-16T14:33:01.080Z,9.33
2019-04-16T14:34:12.098Z,7.13
2019-04-16T14:35:31.976Z,3.23
2019-04-16T14:36:22.966Z,2.93
2019-04-16T14:37:26.618Z,3.53
2019-04-16T14:38:31.908Z,2.87
2019-04-16T14:39:43.089Z,2.77
2019-04-16T14:40:46.728Z,3.00
2019-04-16T14:41:50.689Z,3.00
2019-04-16T14:42:57.506Z,2.20